Time;durP1;ratioP1;P1;durP2;ratioP2;P2;SDS_P1;SDS_P2;PMS_P1;PMS_P2;Temp;Humidity;BMP_temperature;BMP_pressure;BME280_temperature;BME280_humidity;BME280_pressure;Samples;Min_cycle;Max_cycle;Signal;HPM_P1;HPM_P2
2021/03/13 00:00:57;;;;;;;19.82;16.70;;;;;;;1.72;86.36;98910.14;1697533;84;21214;-59
2021/03/13 00:03:25;;;;;;;20.72;15.78;;;;;;;1.72;86.47;98915.70;1697644;84;21630;-59
2021/03/13 00:05:53;;;;;;;20.77;16.65;;;;;;;1.70;86.55;98920.84;1697620;84;21074;-59
2021/03/13 00:08:20;;;;;;;21.57;15.98;;;;;;;1.68;86.64;98923.02;1697568;84;21638;-59
2021/03/13 00:10:47;;;;;;;21.65;16.42;;;;;;;1.67;86.67;98922.61;1697622;84;21265;-59
2021/03/13 00:13:15;;;;;;;21.42;17.40;;;;;;;1.65;86.74;98935.44;1697504;84;21174;-60
2021/03/13 00:15:43;;;;;;;23.15;16.25;;;;;;;1.64;86.81;98938.88;1697609;84;21510;-59
2021/03/13 00:18:13;;;;;;;19.30;15.63;;;;;;;1.64;86.91;98931.18;1697596;84;21095;-59
2021/03/13 00:20:42;;;;;;;18.42;14.58;;;;;;;1.64;86.96;98928.62;1697586;84;21123;-59
2021/03/13 00:23:09;;;;;;;18.85;14.83;;;;;;;1.65;86.99;98930.31;1697633;84;21436;-60
2021/03/13 00:25:38;;;;;;;19.67;15.60;;;;;;;1.66;87.03;98938.42;1697547;84;21135;-60
2021/03/13 00:28:06;;;;;;;21.82;16.70;;;;;;;1.67;87.09;98944.39;1697552;84;21705;-59
2021/03/13 00:30:36;;;;;;;21.70;15.88;;;;;;;1.68;87.13;98941.81;1697700;84;21075;-59
2021/03/13 00:33:11;;;;;;;18.55;15.03;;;;;;;1.72;86.98;98933.65;1697605;84;21080;-60
2021/03/13 00:35:39;;;;;;;18.07;15.28;;;;;;;1.74;87.01;98929.34;1680346;84;21376;-60
2021/03/13 00:38:07;;;;;;;20.50;16.20;;;;;;;1.76;86.99;98925.05;1679002;85;21149;-61
2021/03/13 00:40:36;;;;;;;22.58;17.48;;;;;;;1.78;86.92;98923.31;1651670;86;21196;-59
2021/03/13 00:43:05;;;;;;;20.95;16.95;;;;;;;1.79;86.84;98920.31;1679314;84;21078;-59
2021/03/13 00:45:33;;;;;;;20.88;17.45;;;;;;;1.76;86.76;98916.08;1679100;85;21518;-59
2021/03/13 00:48:02;;;;;;;20.35;16.30;;;;;;;1.75;86.71;98921.22;1651681;86;21456;-60
2021/03/13 00:50:31;;;;;;;20.43;16.17;;;;;;;1.73;86.70;98920.81;1679195;85;21134;-60
2021/03/13 00:53:00;;;;;;;22.62;17.12;;;;;;;1.71;86.73;98922.55;1678959;85;21078;-60
2021/03/13 00:55:28;;;;;;;25.35;18.90;;;;;;;1.68;86.82;98929.43;1651788;86;21144;-60
2021/03/13 00:57:57;;;;;;;24.52;18.42;;;;;;;1.67;86.90;98932.86;1679036;85;21146;-61
2021/03/13 01:00:26;;;;;;;19.48;15.88;;;;;;;1.69;86.96;98934.97;1676058;85;21289;-61
2021/03/13 01:02:55;;;;;;;18.95;15.03;;;;;;;1.70;86.84;98941.80;1651669;86;21229;-61
2021/03/13 01:05:23;;;;;;;21.48;17.10;;;;;;;1.69;86.76;98940.09;1679195;85;21102;-61
2021/03/13 01:07:51;;;;;;;20.08;15.72;;;;;;;1.69;86.88;98943.94;1640430;86;21128;-59
2021/03/13 01:10:29;;;;;;;22.55;18.20;;;;;;;1.70;86.84;98943.08;1665607;86;21098;-60
2021/03/13 01:12:57;;;;;;;21.55;17.75;;;;;;;1.71;86.91;98949.89;1665610;86;21359;-60
2021/03/13 01:15:26;;;;;;;21.02;17.55;;;;;;;1.71;86.88;98950.75;1665607;86;21626;-60
2021/03/13 01:17:54;;;;;;;22.90;16.27;;;;;;;1.74;86.81;98960.11;1665643;86;21102;-60
2021/03/13 01:20:23;;;;;;;21.90;16.93;;;;;;;1.78;86.80;98959.64;1665577;85;21095;-60
2021/03/13 01:22:52;;;;;;;21.60;16.52;;;;;;;1.79;86.69;98957.05;1640568;86;21090;-60
2021/03/13 01:25:20;;;;;;;21.97;17.82;;;;;;;1.80;86.70;98961.28;1665606;86;22401;-60
2021/03/13 01:27:48;;;;;;;19.87;16.10;;;;;;;1.82;86.57;98966.39;1665554;86;21593;-60
2021/03/13 01:33:04;;;;;;;20.25;17.12;;;;;;;1.84;86.28;98965.94;1888675;76;20949;-60
2021/03/13 01:35:31;;;;;;;23.05;17.50;;;;;;;1.76;86.28;98963.51;1775339;80;21151;-60
2021/03/13 01:37:59;;;;;;;24.12;17.98;;;;;;;1.74;86.44;98963.95;1807122;79;21483;-60
2021/03/13 01:40:26;;;;;;;25.55;17.92;;;;;;;1.78;86.60;98963.05;1819516;77;21982;-60
2021/03/13 01:42:54;;;;;;;24.63;18.82;;;;;;;1.82;86.63;98962.55;1849830;77;21043;-60
2021/03/13 01:45:24;;;;;;;20.90;17.02;;;;;;;1.86;86.50;98965.48;1806916;79;21086;-60
2021/03/13 01:47:54;;;;;;;21.27;17.25;;;;;;;1.91;86.37;98973.53;1849918;77;20917;-60
2021/03/13 01:50:23;;;;;;;20.20;16.73;;;;;;;1.98;86.27;98979.00;1775303;80;21437;-60
2021/03/13 01:52:52;;;;;;;22.50;18.07;;;;;;;2.00;86.07;98973.38;1781036;79;20992;-60
2021/03/13 01:55:21;;;;;;;21.40;17.87;;;;;;;2.03;85.80;98976.34;1775213;80;21135;-60
2021/03/13 01:57:51;;;;;;;20.77;17.27;;;;;;;2.01;85.71;98972.52;1773486;81;21097;-60
2021/03/13 02:00:22;;;;;;;20.68;16.65;;;;;;;2.03;85.80;98976.34;1775200;80;21144;-60
2021/03/13 02:02:54;;;;;;;18.40;15.88;;;;;;;2.08;85.76;98988.23;1806271;79;21216;-60
2021/03/13 02:05:27;;;;;;;21.55;16.70;;;;;;;2.14;85.71;98986.45;1807010;79;21076;-60
2021/03/13 02:08:28;;;;;;;21.07;16.45;;;;;;;2.15;85.52;98983.87;1849902;77;20906;-60
2021/03/13 02:11:19;;;;;;;19.52;15.53;;;;;;;2.16;85.48;98986.00;1849826;77;21091;-59
2021/03/13 02:14:29;;;;;;;21.90;17.48;;;;;;;2.15;85.49;98980.45;1775363;80;21716;-58
2021/03/13 02:17:19;;;;;;;17.57;14.47;;;;;;;2.19;85.40;98983.39;1773226;81;21387;-59
2021/03/13 02:20:12;;;;;;;19.15;15.35;;;;;;;2.27;85.29;98985.38;1862279;76;22647;-60
2021/03/13 02:22:43;;;;;;;19.52;16.30;;;;;;;2.25;85.19;98989.25;1808610;78;21192;-60
2021/03/13 02:25:55;;;;;;;20.48;16.00;;;;;;;2.24;84.92;98986.27;1710115;83;21405;-60
2021/03/13 02:28:43;;;;;;;20.50;15.65;;;;;;;2.23;84.78;98985.02;1777040;79;22703;-60
2021/03/13 02:31:11;;;;;;;17.85;14.58;;;;;;;2.14;84.72;98997.56;1749695;82;21037;-59
2021/03/13 02:33:40;;;;;;;16.82;14.60;;;;;;;2.12;84.87;98998.02;1749654;82;21173;-59
2021/03/13 02:36:11;;;;;;;18.30;15.68;;;;;;;2.12;84.89;99003.59;1718986;82;21143;-59
2021/03/13 02:39:00;;;;;;;18.90;15.68;;;;;;;2.15;85.07;98999.27;1749002;82;21072;-59
2021/03/13 02:41:35;;;;;;;21.00;15.93;;;;;;;2.21;84.86;98998.30;1749676;81;21576;-59
2021/03/13 02:44:05;;;;;;;39.75;21.90;;;;;;;2.19;84.74;98998.35;1749800;82;21529;-59
2021/03/13 02:46:39;;;;;;;21.50;15.53;;;;;;;2.17;84.65;98994.95;1749471;82;21395;-60
2021/03/13 02:49:07;;;;;;;20.30;16.23;;;;;;;2.16;84.71;99000.95;1749822;81;21570;-60
2021/03/13 02:51:35;;;;;;;21.77;18.40;;;;;;;2.15;84.53;99007.39;1749594;82;21162;-60
2021/03/13 02:54:05;;;;;;;19.17;15.95;;;;;;;2.05;84.54;99006.23;1749607;82;21472;-60
2021/03/13 02:56:37;;;;;;;21.80;17.15;;;;;;;2.02;84.70;99008.83;1749650;82;21087;-59
2021/03/13 02:59:05;;;;;;;20.73;16.90;;;;;;;2.03;84.84;99016.09;1749917;82;21378;-59
2021/03/13 03:01:34;;;;;;;19.10;15.30;;;;;;;2.07;84.65;99010.06;1749533;81;21095;-60
2021/03/13 03:04:03;;;;;;;18.67;15.68;;;;;;;2.07;84.64;99020.32;1749597;81;21035;-61
2021/03/13 03:06:38;;;;;;;18.75;15.93;;;;;;;2.08;84.67;99015.17;1749577;82;21143;-60
2021/03/13 03:09:07;;;;;;;20.32;16.80;;;;;;;2.09;84.50;99016.02;1720133;82;21151;-60
2021/03/13 03:11:36;;;;;;;18.80;16.17;;;;;;;2.06;84.35;99008.36;1749494;81;22353;-60
2021/03/13 03:14:04;;;;;;;20.37;17.02;;;;;;;2.01;84.42;99009.70;1749566;82;21064;-60
2021/03/13 03:16:37;;;;;;;18.77;14.47;;;;;;;2.04;84.53;99015.23;1749643;81;21060;-60
2021/03/13 03:19:05;;;;;;;20.37;15.68;;;;;;;2.03;84.25;99005.84;1749755;82;21064;-60
2021/03/13 03:21:35;;;;;;;18.45;14.68;;;;;;;1.98;84.22;99010.20;1719770;83;21056;-60
2021/03/13 03:24:06;;;;;;;20.77;16.37;;;;;;;1.95;84.40;99011.09;1719840;83;22135;-60
2021/03/13 03:26:36;;;;;;;20.85;16.85;;;;;;;1.94;84.42;99012.40;1719597;83;21185;-60
2021/03/13 03:29:03;;;;;;;20.82;16.97;;;;;;;1.94;84.53;99012.40;1720511;83;21052;-60
2021/03/13 03:31:31;;;;;;;21.15;16.35;;;;;;;1.92;84.29;99017.98;1720572;83;21832;-60
2021/03/13 03:34:00;;;;;;;20.77;17.15;;;;;;;1.87;84.31;99012.91;1720542;83;21064;-59
2021/03/13 03:36:27;;;;;;;22.90;17.35;;;;;;;1.83;84.43;99015.09;1720499;83;21268;-59
2021/03/13 03:38:56;;;;;;;22.30;16.62;;;;;;;1.80;84.39;99026.67;1720144;83;21214;-59
2021/03/13 03:41:28;;;;;;;21.50;17.92;;;;;;;1.77;84.49;99036.99;1718907;83;21183;-59
2021/03/13 03:44:05;;;;;;;22.52;17.77;;;;;;;1.76;84.67;99028.88;1720029;83;21234;-60
2021/03/13 03:46:35;;;;;;;21.02;16.93;;;;;;;1.78;84.46;99026.30;1720092;83;21487;-60
2021/03/13 03:49:05;;;;;;;21.45;17.20;;;;;;;1.72;84.51;99021.66;1720008;83;21311;-60
2021/03/13 03:51:34;;;;;;;19.90;16.45;;;;;;;1.73;84.66;99033.61;1719392;83;21087;-60
2021/03/13 03:54:11;;;;;;;22.25;17.05;;;;;;;1.73;84.65;99034.89;1719847;83;21150;-60
2021/03/13 03:56:41;;;;;;;20.25;16.48;;;;;;;1.73;84.65;99034.05;1720015;83;21107;-60
2021/03/13 03:59:15;;;;;;;21.27;16.65;;;;;;;1.72;84.64;99036.20;1719775;83;21155;-60
2021/03/13 04:01:49;;;;;;;21.00;16.55;;;;;;;1.75;84.52;99040.44;1720035;83;21202;-61
2021/03/13 04:04:19;;;;;;;17.35;14.78;;;;;;;1.74;84.24;99046.00;1719951;83;21566;-61
2021/03/13 04:06:48;;;;;;;18.48;15.83;;;;;;;1.68;84.15;99044.78;1720037;83;21675;-59
2021/03/13 04:09:22;;;;;;;24.15;17.77;;;;;;;1.64;84.38;99050.38;1719972;83;21594;-60
2021/03/13 04:11:51;;;;;;;27.40;17.95;;;;;;;1.64;84.43;99057.22;1720060;82;21075;-59
2021/03/13 04:14:19;;;;;;;27.67;20.35;;;;;;;1.60;84.28;99058.97;1720003;83;21207;-59
2021/03/13 04:16:47;;;;;;;24.82;19.05;;;;;;;1.55;84.32;99051.79;1720034;83;21148;-59
2021/03/13 04:19:15;;;;;;;20.20;15.95;;;;;;;1.51;84.38;99059.52;1719940;83;21659;-59
2021/03/13 04:21:44;;;;;;;23.10;16.90;;;;;;;1.49;84.51;99065.09;1719941;83;21067;-60
2021/03/13 04:24:13;;;;;;;22.50;17.98;;;;;;;1.48;84.48;99075.78;1719989;83;21496;-59
2021/03/13 04:26:43;;;;;;;22.77;17.92;;;;;;;1.48;84.49;99075.78;1719942;83;21370;-59
2021/03/13 04:29:11;;;;;;;22.82;17.85;;;;;;;1.47;84.24;99077.92;1704856;83;21113;-60
2021/03/13 04:31:39;;;;;;;22.80;17.62;;;;;;;1.44;83.98;99077.11;1704970;83;21580;-60
2021/03/13 04:34:06;;;;;;;19.80;15.50;;;;;;;1.37;83.85;99081.47;1704890;84;21165;-59
2021/03/13 04:36:36;;;;;;;21.35;16.52;;;;;;;1.34;83.74;99069.54;1704906;84;21183;-60
2021/03/13 04:39:05;;;;;;;22.93;17.98;;;;;;;1.27;83.77;99066.61;1686879;83;21218;-59
2021/03/13 04:41:32;;;;;;;19.77;16.70;;;;;;;1.23;83.69;99071.78;1704925;84;21525;-60
2021/03/13 04:44:00;;;;;;;24.60;17.67;;;;;;;1.17;83.62;99069.30;1704854;84;21089;-61
2021/03/13 04:46:35;;;;;;;18.20;15.45;;;;;;;1.12;83.61;99069.77;1704888;84;21084;-60
2021/03/13 04:49:06;;;;;;;19.98;15.23;;;;;;;1.07;83.57;99073.65;1704935;84;21062;-59
2021/03/13 04:51:35;;;;;;;23.92;16.48;;;;;;;1.01;83.43;99074.98;1704996;84;21388;-59
2021/03/13 04:54:03;;;;;;;27.42;18.35;;;;;;;0.93;83.34;99075.08;1704857;84;21082;-60
2021/03/13 04:56:31;;;;;;;22.77;16.42;;;;;;;0.85;83.25;99072.15;1704869;83;21077;-61
2021/03/13 04:58:59;;;;;;;23.90;17.65;;;;;;;0.75;83.35;99075.23;1704880;82;21165;-60
2021/03/13 05:01:27;;;;;;;22.60;17.12;;;;;;;0.68;83.25;99078.70;1686975;84;21145;-60
2021/03/13 05:03:54;;;;;;;20.70;15.48;;;;;;;0.60;83.41;99080.48;1704870;84;21378;-60
2021/03/13 05:06:22;;;;;;;19.60;15.70;;;;;;;0.55;83.48;99086.91;1704850;84;21083;-60
2021/03/13 05:08:49;;;;;;;20.35;16.67;;;;;;;0.51;83.56;99087.79;1704842;84;21157;-59
2021/03/13 05:11:16;;;;;;;23.22;16.50;;;;;;;0.47;83.71;99091.66;1704845;83;21616;-59
2021/03/13 05:13:45;;;;;;;19.50;16.05;;;;;;;0.45;83.81;99094.22;1704916;84;21529;-60
2021/03/13 05:16:12;;;;;;;18.92;15.98;;;;;;;0.49;83.95;99093.77;1704852;84;21384;-60
2021/03/13 05:18:40;;;;;;;22.48;16.95;;;;;;;0.50;83.77;99092.48;1704806;84;21521;-60
2021/03/13 05:21:08;;;;;;;24.45;17.80;;;;;;;0.51;83.99;99092.05;1704819;84;21157;-60
2021/03/13 05:23:35;;;;;;;26.68;18.87;;;;;;;0.54;84.07;99090.33;1704820;83;21065;-61
2021/03/13 05:26:02;;;;;;;20.37;16.00;;;;;;;0.62;84.17;99083.86;1704972;83;21486;-60
2021/03/13 05:28:30;;;;;;;19.87;15.78;;;;;;;0.67;83.88;99091.08;1705634;83;21154;-60
2021/03/13 05:30:58;;;;;;;17.35;14.18;;;;;;;0.69;83.76;99091.91;1706312;84;21119;-60
2021/03/13 05:33:26;;;;;;;17.17;14.33;;;;;;;0.68;83.71;99097.46;1706379;82;21172;-60
2021/03/13 05:35:53;;;;;;;15.43;13.32;;;;;;;0.71;83.71;99100.43;1706379;84;21081;-60
2021/03/13 05:38:21;;;;;;;16.62;13.55;;;;;;;0.77;83.57;99105.52;1706338;84;21702;-60
2021/03/13 05:40:49;;;;;;;17.92;15.05;;;;;;;0.75;83.07;99103.39;1706454;84;21381;-60
2021/03/13 05:43:16;;;;;;;19.00;14.80;;;;;;;0.71;83.08;99102.14;1706291;84;21631;-60
2021/03/13 05:45:44;;;;;;;18.48;15.05;;;;;;;0.74;83.23;99103.41;1706358;84;21056;-59
2021/03/13 05:48:11;;;;;;;21.23;14.83;;;;;;;0.76;82.84;99100.41;1706317;84;21823;-59
2021/03/13 05:50:39;;;;;;;19.55;15.53;;;;;;;0.75;82.87;99102.55;1706361;84;21112;-60
2021/03/13 05:53:06;;;;;;;21.33;16.00;;;;;;;0.75;82.98;99107.66;1706352;84;22383;-60
2021/03/13 05:55:34;;;;;;;19.45;15.25;;;;;;;0.79;82.95;99114.03;1706291;84;21068;-60
2021/03/13 05:58:01;;;;;;;22.30;16.48;;;;;;;0.86;82.96;99120.78;1706350;84;21076;-60
2021/03/13 06:00:29;;;;;;;22.45;16.32;;;;;;;0.93;82.97;99119.03;1706343;83;21127;-61
2021/03/13 06:02:57;;;;;;;22.48;15.83;;;;;;;1.01;82.79;99122.36;1706356;84;21587;-60
2021/03/13 06:05:26;;;;;;;20.30;14.83;;;;;;;1.10;82.33;99120.16;1706325;84;21395;-60
2021/03/13 06:07:58;;;;;;;16.37;13.58;;;;;;;1.05;81.89;99127.88;1706265;84;21100;-59
2021/03/13 06:10:23;;;;;;;17.07;13.60;;;;;;;1.04;81.61;99121.91;1706042;84;21092;-60
2021/03/13 06:12:51;;;;;;;15.80;12.93;;;;;;;1.01;81.70;99124.48;1706344;84;21125;-60
2021/03/13 06:15:21;;;;;;;17.60;14.23;;;;;;;1.02;81.50;99127.47;1706350;82;21583;-61
2021/03/13 06:17:58;;;;;;;17.98;14.50;;;;;;;0.98;81.44;99129.66;1706319;84;21375;-61
2021/03/13 06:20:37;;;;;;;19.10;13.93;;;;;;;0.98;81.41;99124.54;1706246;84;21175;-61
2021/03/13 06:23:10;;;;;;;15.03;12.93;;;;;;;1.05;81.55;99122.75;1706446;84;21048;-61
2021/03/13 06:25:37;;;;;;;;;;;;;;;1.11;80.99;99119.30;1707949;82;21147;-60
2021/03/13 06:28:12;;;;;;;15.72;13.08;;;;;;;1.08;80.77;99128.28;1710241;83;20227;-59
2021/03/13 06:30:49;;;;;;;19.92;14.45;;;;;;;0.99;80.66;99133.92;1719906;83;21350;-60
2021/03/13 06:33:31;;;;;;;16.37;12.78;;;;;;;0.91;80.89;99130.56;1719685;82;21623;-61
2021/03/13 06:36:01;;;;;;;16.17;12.85;;;;;;;0.92;81.07;99138.66;1719896;83;21140;-61
2021/03/13 06:38:33;;;;;;;17.57;13.32;;;;;;;0.93;80.86;99144.63;1719935;83;21508;-61
2021/03/13 06:41:22;;;;;;;19.60;14.58;;;;;;;0.88;80.95;99143.38;1719874;83;21177;-61
2021/03/13 06:43:52;;;;;;;19.80;14.68;;;;;;;0.86;81.26;99155.34;1719872;83;21564;-61
2021/03/13 06:46:21;;;;;;;27.48;16.25;;;;;;;0.86;81.15;99157.05;1719821;83;21092;-62
2021/03/13 06:48:52;;;;;;;16.67;14.03;;;;;;;0.92;81.51;99155.30;1719800;83;21115;-60
2021/03/13 06:51:37;;;;;;;18.37;13.80;;;;;;;0.99;81.02;99157.40;1719841;83;21076;-62
2021/03/13 06:54:15;;;;;;;18.73;14.05;;;;;;;0.99;80.92;99160.81;1720026;83;21064;-61
2021/03/13 06:56:59;;;;;;;17.57;14.25;;;;;;;0.97;80.86;99156.13;1719850;83;21160;-61
2021/03/13 06:59:34;;;;;;;18.50;14.85;;;;;;;0.93;80.81;99156.16;1719845;83;21574;-61
2021/03/13 07:02:05;;;;;;;17.27;14.33;;;;;;;0.93;81.03;99162.56;1719854;83;21063;-61
2021/03/13 07:04:42;;;;;;;19.10;14.53;;;;;;;0.99;81.05;99156.97;1719984;83;21080;-61
2021/03/13 07:07:31;;;;;;;16.70;13.83;;;;;;;1.08;81.02;99161.15;1719836;83;21151;-60
2021/03/13 07:10:04;;;;;;;17.42;14.33;;;;;;;1.17;80.85;99161.52;1719910;83;22098;-60
2021/03/13 07:12:35;;;;;;;;;;;;;;;1.20;80.81;99157.19;1722351;83;21499;-60
2021/03/13 07:15:23;;;;;;;16.62;13.38;;;;;;;1.27;80.68;99158.84;1720253;83;20243;-62
2021/03/13 07:17:55;;;;;;;18.60;13.32;;;;;;;1.30;80.52;99162.66;1719978;83;21067;-60
2021/03/13 07:20:27;;;;;;;16.05;13.78;;;;;;;1.37;80.57;99164.75;1719936;83;21488;-61
2021/03/13 07:23:00;;;;;;;15.75;13.53;;;;;;;1.46;80.62;99162.08;1720024;83;21222;-61
2021/03/13 07:25:28;;;;;;;17.87;13.50;;;;;;;1.56;80.27;99166.27;1720057;82;21151;-60
2021/03/13 07:28:01;;;;;;;18.10;14.60;;;;;;;1.62;79.83;99175.58;1718659;83;21088;-60
2021/03/13 07:30:30;;;;;;;18.70;15.63;;;;;;;1.66;79.87;99175.98;1706563;84;21136;-61
2021/03/13 07:33:10;;;;;;;16.60;14.03;;;;;;;1.76;79.92;99175.03;1706506;82;21555;-61
2021/03/13 07:35:52;;;;;;;17.85;15.10;;;;;;;1.86;79.72;99171.91;1687441;84;22122;-61
2021/03/13 07:38:21;;;;;;;20.20;16.15;;;;;;;1.98;79.54;99174.36;1706385;84;21583;-59
2021/03/13 07:40:48;;;;;;;17.65;14.33;;;;;;;2.07;79.36;99169.95;1686402;84;21552;-59
2021/03/13 07:43:17;;;;;;;20.32;15.58;;;;;;;2.20;79.10;99177.52;1706375;84;21655;-61
2021/03/13 07:45:48;;;;;;;20.62;15.30;;;;;;;2.32;78.92;99173.06;1706434;84;21093;-61
2021/03/13 07:48:16;;;;;;;18.23;15.05;;;;;;;2.45;78.73;99176.73;1706414;84;21268;-61
2021/03/13 07:50:48;;;;;;;17.42;13.75;;;;;;;2.53;78.33;99175.78;1706375;83;21159;-61
2021/03/13 07:53:16;;;;;;;18.75;14.18;;;;;;;2.57;77.81;99180.01;1706420;82;21195;-61
2021/03/13 07:55:50;;;;;;;18.02;14.50;;;;;;;2.58;77.76;99177.86;1706362;84;21194;-60
2021/03/13 07:58:20;;;;;;;16.90;13.63;;;;;;;2.61;77.52;99176.94;1706693;84;21068;-60
2021/03/13 08:00:48;;;;;;;16.65;14.78;;;;;;;2.64;77.50;99184.59;1706547;83;22298;-61
2021/03/13 08:03:37;;;;;;;19.40;15.13;;;;;;;2.71;77.54;99174.66;1706340;83;21175;-59
2021/03/13 08:06:12;;;;;;;16.40;14.00;;;;;;;2.82;77.21;99173.21;1706398;84;21143;-62
2021/03/13 08:08:47;;;;;;;16.15;14.40;;;;;;;2.90;76.67;99174.80;1706379;84;21091;-60
2021/03/13 08:11:28;;;;;;;16.25;14.23;;;;;;;2.99;76.34;99176.39;1890002;76;22654;-61
2021/03/13 08:13:59;;;;;;;15.72;12.95;;;;;;;2.95;76.43;99173.45;1828133;77;21592;-60
2021/03/13 08:16:33;;;;;;;14.93;12.80;;;;;;;3.01;76.34;99172.05;1861098;77;21350;-61
2021/03/13 08:19:01;;;;;;;16.17;13.22;;;;;;;3.10;76.07;99169.35;1860929;77;20950;-60
2021/03/13 08:21:41;;;;;;;16.25;13.25;;;;;;;3.16;76.10;99170.55;1829209;77;21438;-60
2021/03/13 08:24:10;;;;;;;15.65;13.85;;;;;;;3.26;76.08;99158.38;1827252;78;21047;-61
2021/03/13 08:26:47;;;;;;;18.07;13.98;;;;;;;3.31;75.54;99157.43;1827344;78;21532;-60
2021/03/13 08:29:14;;;;;;;15.40;13.80;;;;;;;3.39;75.79;99153.45;1827181;78;21328;-61
2021/03/13 08:31:46;;;;;;;18.90;14.35;;;;;;;3.50;75.69;99154.09;1827155;78;20938;-61
2021/03/13 08:34:23;;;;;;;17.30;13.90;;;;;;;3.60;75.38;99154.32;1795880;78;21163;-60
2021/03/13 08:36:51;;;;;;;16.27;12.93;;;;;;;3.70;75.11;99152.01;1827303;78;21497;-61
2021/03/13 08:39:21;;;;;;;19.37;14.87;;;;;;;3.79;74.79;99141.56;1827196;78;21473;-60
2021/03/13 08:41:55;;;;;;;16.02;13.43;;;;;;;3.84;74.81;99144.02;1827247;78;22165;-61
2021/03/13 08:44:30;;;;;;;17.12;13.38;;;;;;;3.88;74.63;99137.94;1827154;78;21061;-61
2021/03/13 08:47:12;;;;;;;15.00;12.80;;;;;;;3.94;74.27;99135.69;1827287;78;21092;-60
2021/03/13 08:49:48;;;;;;;16.70;13.32;;;;;;;4.02;74.24;99141.52;1827165;78;21044;-60
2021/03/13 08:52:21;;;;;;;17.67;12.93;;;;;;;4.10;74.16;99143.50;1827196;78;21163;-60
2021/03/13 08:54:50;;;;;;;14.25;12.60;;;;;;;4.11;73.61;99138.33;1827198;78;21509;-61
2021/03/13 08:57:32;;;;;;;15.53;13.48;;;;;;;4.15;73.47;99144.27;1827086;78;21135;-61
2021/03/13 09:00:00;;;;;;;20.77;13.38;;;;;;;4.18;73.50;99143.36;1827313;78;21048;-61
2021/03/13 09:02:34;;;;;;;15.03;13.20;;;;;;;4.25;73.93;99142.33;1827223;78;21539;-61
2021/03/13 09:05:12;;;;;;;15.90;12.40;;;;;;;4.36;73.70;99141.67;1827302;78;21052;-61
2021/03/13 09:07:41;;;;;;;16.40;12.60;;;;;;;4.45;73.21;99140.17;1827301;78;21451;-60
2021/03/13 09:10:10;;;;;;;14.78;13.18;;;;;;;4.50;72.71;99135.77;1828050;78;21519;-60
2021/03/13 09:12:39;;;;;;;14.53;12.37;;;;;;;4.52;72.41;99137.03;1830403;78;21115;-60
2021/03/13 09:15:08;;;;;;;14.15;12.65;;;;;;;4.50;72.73;99132.76;1830316;78;21587;-60
2021/03/13 09:17:36;;;;;;;13.83;12.07;;;;;;;4.58;72.31;99135.61;1830391;78;21123;-60
2021/03/13 09:20:15;;;;;;;13.62;12.20;;;;;;;4.63;72.29;99143.62;1830028;77;21182;-60
2021/03/13 09:22:45;;;;;;;13.22;11.63;;;;;;;4.70;72.45;99140.47;1829722;78;21072;-61
2021/03/13 09:25:18;;;;;;;15.75;12.00;;;;;;;4.79;72.63;99136.41;1829774;78;21049;-61
2021/03/13 09:27:45;;;;;;;13.95;12.45;;;;;;;4.91;72.19;99144.28;1829873;78;21060;-61
2021/03/13 09:30:20;;;;;;;14.30;11.83;;;;;;;4.99;71.82;99142.38;1829703;78;21068;-60
2021/03/13 09:32:49;;;;;;;14.70;13.15;;;;;;;5.07;71.80;99143.87;1829767;78;21536;-60
2021/03/13 09:35:21;;;;;;;23.30;14.35;;;;;;;5.20;72.00;99143.96;1811242;78;21568;-62
2021/03/13 09:37:48;;;;;;;15.10;12.28;;;;;;;5.32;72.19;99140.69;1829718;78;21111;-61
2021/03/13 09:40:19;;;;;;;13.40;11.95;;;;;;;5.44;71.95;99145.08;1829725;78;21143;-61
2021/03/13 09:42:48;;;;;;;14.95;12.65;;;;;;;5.54;71.68;99145.25;1829788;78;21096;-60
2021/03/13 09:45:19;;;;;;;13.20;11.80;;;;;;;5.63;71.39;99148.46;1829704;78;21370;-61
2021/03/13 09:47:55;;;;;;;13.08;11.60;;;;;;;5.70;71.30;99147.42;1829763;78;21568;-61
2021/03/13 09:50:33;;;;;;;15.38;11.93;;;;;;;5.76;71.17;99147.27;1829654;78;21481;-61
2021/03/13 09:53:03;;;;;;;14.85;11.88;;;;;;;5.82;70.92;99147.08;1829744;78;21060;-62
2021/03/13 09:55:30;;;;;;;14.58;11.63;;;;;;;5.90;70.79;99145.17;1829775;78;21468;-60
2021/03/13 09:58:01;;;;;;;23.07;15.00;;;;;;;5.98;70.43;99139.37;1829725;78;21411;-60
2021/03/13 10:00:32;;;;;;;15.25;11.50;;;;;;;6.05;70.53;99136.99;1829676;78;21123;-61
2021/03/13 10:03:03;;;;;;;14.78;11.93;;;;;;;6.12;70.58;99132.52;1829763;78;21057;-61
2021/03/13 10:05:31;;;;;;;12.60;10.00;;;;;;;6.20;70.51;99136.98;1828748;78;21048;-61
2021/03/13 10:08:06;;;;;;;13.25;11.15;;;;;;;6.28;69.79;99146.66;1829829;78;21539;-61
2021/03/13 10:10:35;;;;;;;12.90;10.90;;;;;;;6.29;69.17;99144.48;1828356;78;21583;-61
2021/03/13 10:13:06;;;;;;;15.20;11.40;;;;;;;6.31;69.43;99147.02;1826441;78;21203;-60
2021/03/13 10:15:36;;;;;;;13.80;11.20;;;;;;;6.38;69.51;99145.52;1826460;78;21124;-61
2021/03/13 10:18:14;;;;;;;14.00;10.95;;;;;;;6.46;69.75;99141.39;1826523;78;21041;-62
2021/03/13 10:20:51;;;;;;;13.85;10.88;;;;;;;6.54;69.50;99141.58;1826522;77;21033;-60
2021/03/13 10:23:21;;;;;;;13.55;10.93;;;;;;;6.63;68.93;99139.59;1826510;78;21564;-60
2021/03/13 10:25:58;;;;;;;13.60;11.20;;;;;;;6.73;69.08;99133.26;1826438;78;21138;-61
2021/03/13 10:28:27;;;;;;;13.93;10.78;;;;;;;6.86;69.26;99132.81;1826517;78;21140;-61
2021/03/13 10:31:10;;;;;;;12.95;10.05;;;;;;;7.01;69.05;99137.93;1826560;78;21571;-62
2021/03/13 10:33:41;;;;;;;11.18;9.83;;;;;;;7.14;68.28;99140.54;1826487;78;21116;-60
2021/03/13 10:36:10;;;;;;;10.43;9.43;;;;;;;7.25;67.83;99133.70;1826501;78;22333;-61
2021/03/13 10:38:43;;;;;;;11.20;9.95;;;;;;;7.34;67.18;99132.56;1826547;78;21091;-61
2021/03/13 10:41:14;;;;;;;11.70;10.40;;;;;;;7.38;66.71;99131.13;1826921;78;21473;-61
2021/03/13 10:43:45;;;;;;;11.88;10.23;;;;;;;7.39;67.04;99133.27;1826589;78;21041;-61
2021/03/13 10:46:19;;;;;;;15.48;10.65;;;;;;;7.43;67.16;99129.64;1826794;78;21147;-61
2021/03/13 10:48:55;;;;;;;11.68;10.48;;;;;;;7.52;66.98;99134.52;1826611;78;26505;-62
2021/03/13 10:51:30;;;;;;;13.05;10.00;;;;;;;7.61;66.72;99128.56;1826422;78;21501;-61
2021/03/13 10:53:59;;;;;;;11.90;9.93;;;;;;;7.67;65.97;99128.80;1826448;78;21154;-61
2021/03/13 10:56:42;;;;;;;12.28;9.93;;;;;;;7.74;66.27;99129.00;1826459;78;21107;-61
2021/03/13 10:59:10;;;;;;;13.85;10.23;;;;;;;7.86;65.91;99114.75;1826347;78;26496;-61
2021/03/13 11:01:39;;;;;;;11.68;9.93;;;;;;;7.93;64.84;99113.64;1794798;78;21355;-61
2021/03/13 11:04:07;;;;;;;12.50;10.85;;;;;;;7.98;65.30;99110.45;1795402;78;21100;-60
2021/03/13 11:06:37;;;;;;;12.95;10.40;;;;;;;8.05;65.27;99109.75;1826421;78;21204;-60
2021/03/13 11:09:10;;;;;;;11.08;9.75;;;;;;;8.11;64.97;99110.83;1826501;78;21080;-61
2021/03/13 11:11:38;;;;;;;11.28;9.75;;;;;;;8.13;65.02;99099.51;1828486;78;21556;-62
2021/03/13 11:14:07;;;;;;;9.73;8.75;;;;;;;8.12;64.93;99102.16;1829710;78;22228;-61
2021/03/13 11:16:38;;;;;;;10.48;9.48;;;;;;;8.12;64.60;99096.98;1829561;78;21151;-61
2021/03/13 11:19:07;;;;;;;13.85;9.88;;;;;;;8.11;64.25;99097.42;1829649;78;21112;-61
2021/03/13 11:21:35;;;;;;;14.93;9.78;;;;;;;8.12;63.80;99082.28;1829570;77;21187;-61
2021/03/13 11:24:05;;;;;;;11.80;9.85;;;;;;;8.10;63.86;99084.08;1829645;78;21052;-61
2021/03/13 11:26:33;;;;;;;13.98;9.20;;;;;;;8.04;63.48;99079.12;1829745;78;22118;-61
2021/03/13 11:29:01;;;;;;;9.43;8.53;;;;;;;7.94;63.87;99077.78;1829635;78;21500;-60
2021/03/13 11:31:28;;;;;;;10.23;9.15;;;;;;;7.92;64.32;99075.70;1829691;78;21484;-61
2021/03/13 11:33:56;;;;;;;9.73;8.80;;;;;;;7.94;64.19;99070.02;1829607;78;21127;-60
2021/03/13 11:36:24;;;;;;;13.00;8.80;;;;;;;7.93;64.45;99063.15;1829665;78;21044;-61
2021/03/13 11:38:52;;;;;;;9.33;8.33;;;;;;;7.95;64.54;99057.02;1829722;78;22579;-61
2021/03/13 11:41:20;;;;;;;10.50;8.13;;;;;;;7.97;64.41;99062.59;1829571;78;21072;-61
2021/03/13 11:43:48;;;;;;;10.75;8.03;;;;;;;7.93;64.20;99053.64;1829707;78;21097;-61
2021/03/13 11:46:15;;;;;;;10.40;8.75;;;;;;;7.89;64.31;99049.91;1829624;78;21179;-60
2021/03/13 11:48:44;;;;;;;10.13;9.10;;;;;;;7.89;64.58;99050.77;1829686;78;21159;-60